createdAt,value
2018-04-06T00:00:14.343Z,2.30
2018-04-06T00:02:42.781Z,2.70
2018-04-06T00:05:11.189Z,2.80
2018-04-06T00:07:39.591Z,2.73
2018-04-06T00:10:08.066Z,2.37
2018-04-06T00:12:36.470Z,2.40
2018-04-06T00:15:04.904Z,2.07
2018-04-06T00:17:33.349Z,2.27
2018-04-06T00:20:01.757Z,2.47
2018-04-06T00:22:30.158Z,2.30
2018-04-06T00:24:58.608Z,2.37
2018-04-06T00:27:27.002Z,2.53
2018-04-06T00:29:55.405Z,2.67
2018-04-06T00:32:23.866Z,2.73
2018-04-06T00:34:52.261Z,2.23
2018-04-06T00:37:20.671Z,2.53
2018-04-06T00:39:49.121Z,2.73
2018-04-06T00:42:17.525Z,2.93
2018-04-06T00:44:45.929Z,2.50
2018-04-06T00:47:14.369Z,2.60
2018-04-06T00:49:42.782Z,3.20
2018-04-06T00:52:11.186Z,2.57
2018-04-06T00:54:39.645Z,2.43
2018-04-06T00:57:08.048Z,2.60
2018-04-06T00:59:36.445Z,2.30
2018-04-06T01:02:04.885Z,2.80
2018-04-06T01:04:33.295Z,2.60
2018-04-06T01:07:01.702Z,3.00
2018-04-06T01:09:30.146Z,2.70
2018-04-06T01:11:58.566Z,2.50
2018-04-06T01:14:26.972Z,3.00
2018-04-06T01:16:55.429Z,2.90
2018-04-06T01:19:23.833Z,3.13
2018-04-06T01:21:52.243Z,3.07
2018-04-06T01:24:20.701Z,3.23
2018-04-06T01:26:49.119Z,3.13
2018-04-06T01:29:17.537Z,2.60
2018-04-06T01:31:45.998Z,3.03
2018-04-06T01:34:14.398Z,2.53
2018-04-06T01:36:42.810Z,2.57
2018-04-06T01:39:11.250Z,2.60
2018-04-06T01:41:39.654Z,2.93
2018-04-06T01:44:08.061Z,2.90
2018-04-06T01:46:36.519Z,3.03
2018-04-06T01:49:04.928Z,2.50
2018-04-06T01:51:33.337Z,3.20
2018-04-06T01:54:01.784Z,2.90
2018-04-06T01:56:30.190Z,2.80
2018-04-06T01:58:58.597Z,2.77
2018-04-06T02:01:27.045Z,2.73
2018-04-06T02:03:55.445Z,2.67
2018-04-06T02:06:23.850Z,2.30
2018-04-06T02:08:52.305Z,2.33
2018-04-06T02:11:20.730Z,2.80
2018-04-06T02:13:49.126Z,2.60
2018-04-06T02:16:17.571Z,2.60
2018-04-06T02:18:45.978Z,2.70
2018-04-06T02:21:14.377Z,2.70
2018-04-06T02:23:42.821Z,2.43
2018-04-06T02:26:11.221Z,2.17
2018-04-06T02:28:39.639Z,2.80
2018-04-06T02:31:08.084Z,2.93
2018-04-06T02:33:36.503Z,3.00
2018-04-06T02:36:04.938Z,2.93
2018-04-06T02:38:33.396Z,2.90
2018-04-06T02:41:01.835Z,2.60
2018-04-06T02:43:30.242Z,2.90
2018-04-06T02:45:58.691Z,2.97
2018-04-06T02:48:27.102Z,3.10
2018-04-06T02:50:55.517Z,2.53
2018-04-06T02:53:23.974Z,2.90
2018-04-06T02:55:52.387Z,2.60
2018-04-06T02:58:20.800Z,2.87
2018-04-06T03:00:49.259Z,2.57
2018-04-06T03:03:17.667Z,2.93
2018-04-06T03:05:46.066Z,2.73
2018-04-06T03:08:14.514Z,2.67
2018-04-06T03:10:42.985Z,2.50
2018-04-06T03:13:11.397Z,3.13
2018-04-06T03:15:39.833Z,2.50
2018-04-06T03:18:08.229Z,2.40
2018-04-06T03:20:36.633Z,3.37
2018-04-06T03:23:05.082Z,2.67
2018-04-06T03:25:33.490Z,2.80
2018-04-06T03:28:01.885Z,2.83
2018-04-06T03:30:30.335Z,3.10
2018-04-06T03:32:58.742Z,2.97
2018-04-06T03:35:27.138Z,2.67
2018-04-06T03:37:55.585Z,2.83
2018-04-06T03:40:23.988Z,2.83
2018-04-06T03:42:52.389Z,2.53
2018-04-06T03:45:20.842Z,2.87
2018-04-06T03:47:49.246Z,2.80
2018-04-06T03:50:17.649Z,2.73
2018-04-06T03:52:46.107Z,2.80
2018-04-06T03:55:14.514Z,2.50
2018-04-06T03:57:42.926Z,2.80
2018-04-06T04:00:11.373Z,2.70
2018-04-06T04:02:39.770Z,2.83
2018-04-06T04:05:08.176Z,2.67
2018-04-06T04:07:36.635Z,2.70
2018-04-06T04:10:05.066Z,3.30
2018-04-06T04:12:33.474Z,2.77
2018-04-06T04:15:01.925Z,3.37
2018-04-06T04:17:30.325Z,2.90
2018-04-06T04:19:58.737Z,3.07
2018-04-06T04:22:27.193Z,2.97
2018-04-06T04:24:55.599Z,2.80
2018-04-06T04:27:24.005Z,3.40
2018-04-06T04:29:52.463Z,11.73
2018-04-06T04:32:20.868Z,33.03
2018-04-06T04:34:49.279Z,18.20
2018-04-06T04:37:17.733Z,25.43
2018-04-06T04:39:46.151Z,17.33
2018-04-06T04:42:14.573Z,25.57
2018-04-06T04:44:43.022Z,12.97
2018-04-06T04:47:11.433Z,11.87
2018-04-06T04:49:39.849Z,10.80
2018-04-06T04:52:08.320Z,10.13
2018-04-06T04:54:36.729Z,23.93
2018-04-06T04:57:05.145Z,27.27
2018-04-06T04:59:33.597Z,16.10
2018-04-06T05:02:02.015Z,22.93
2018-04-06T05:04:30.422Z,7.90
2018-04-06T05:06:58.872Z,7.13
2018-04-06T05:09:27.281Z,5.03
2018-04-06T05:11:55.690Z,4.07
2018-04-06T05:14:24.141Z,3.97
2018-04-06T05:16:52.554Z,5.40
2018-04-06T05:19:20.965Z,3.70
2018-04-06T05:21:49.415Z,5.00
2018-04-06T05:24:17.838Z,5.40
2018-04-06T05:26:46.247Z,10.77
2018-04-06T05:29:14.698Z,7.87
2018-04-06T05:31:43.120Z,10.77
2018-04-06T05:34:11.532Z,26.43
2018-04-06T05:36:39.998Z,14.67
2018-04-06T05:39:08.414Z,12.60
2018-04-06T05:41:36.826Z,7.80
2018-04-06T05:44:05.287Z,8.63
2018-04-06T05:46:33.694Z,7.50
2018-04-06T05:49:02.162Z,6.63
2018-04-06T05:51:30.610Z,5.60
2018-04-06T05:53:59.019Z,4.90
2018-04-06T05:56:27.425Z,4.40
2018-04-06T05:58:55.873Z,5.00
2018-04-06T06:01:24.278Z,4.80
2018-04-06T06:03:52.690Z,4.17
2018-04-06T06:06:21.139Z,4.33
2018-04-06T06:08:50.569Z,4.67
2018-04-06T06:11:18.978Z,4.13
2018-04-06T06:13:47.436Z,3.63
2018-04-06T06:16:15.853Z,3.47
2018-04-06T06:18:44.251Z,4.07
2018-04-06T06:21:12.706Z,4.30
2018-04-06T06:23:41.121Z,4.47
2018-04-06T06:26:09.527Z,4.00
2018-04-06T06:28:37.985Z,4.17
2018-04-06T06:31:06.386Z,3.97
2018-04-06T06:33:34.793Z,3.73
2018-04-06T06:36:03.255Z,7.13
2018-04-06T06:38:31.674Z,24.10
2018-04-06T06:41:00.082Z,14.43
2018-04-06T06:43:28.534Z,28.33
2018-04-06T06:45:56.945Z,24.67
2018-04-06T06:48:25.361Z,78.30
2018-04-06T06:50:53.850Z,51.53
2018-04-06T06:53:22.270Z,103.17
2018-04-06T06:55:50.704Z,16.47
2018-04-06T06:58:19.351Z,52.10
2018-04-06T07:00:47.772Z,16.73
2018-04-06T07:03:16.204Z,43.83
2018-04-06T07:05:44.654Z,13.93
2018-04-06T07:08:13.069Z,8.67
2018-04-06T07:10:41.486Z,33.47
2018-04-06T07:13:09.935Z,6.30
2018-04-06T07:15:38.366Z,10.53
2018-04-06T07:18:06.784Z,6.97
2018-04-06T07:20:35.249Z,7.73
2018-04-06T07:23:03.658Z,5.57
2018-04-06T07:25:32.073Z,6.33
2018-04-06T07:28:00.521Z,4.47
2018-04-06T07:30:28.931Z,6.93
2018-04-06T07:32:57.345Z,5.23
2018-04-06T07:35:25.801Z,6.37
2018-04-06T07:37:54.215Z,4.33
2018-04-06T07:40:22.626Z,4.10
2018-04-06T07:42:51.077Z,4.67
2018-04-06T07:45:19.536Z,5.03
2018-04-06T07:47:47.946Z,5.17
2018-04-06T07:50:16.398Z,4.33
2018-04-06T07:52:44.814Z,4.43
2018-04-06T07:55:13.217Z,3.73
2018-04-06T07:57:41.681Z,4.63
2018-04-06T08:00:10.087Z,4.93
2018-04-06T08:02:38.508Z,4.03
2018-04-06T08:05:06.967Z,4.60
2018-04-06T08:07:35.386Z,4.07
2018-04-06T08:10:03.868Z,3.57
2018-04-06T08:12:32.322Z,4.53
2018-04-06T08:15:00.743Z,4.40
2018-04-06T08:17:29.150Z,3.87
2018-04-06T08:19:57.618Z,3.77
2018-04-06T08:22:26.023Z,4.00
2018-04-06T08:24:54.439Z,4.57
2018-04-06T08:27:22.897Z,3.97
2018-04-06T08:29:52.729Z,3.87
2018-04-06T08:32:21.139Z,3.63
2018-04-06T08:34:49.598Z,4.00
2018-04-06T08:37:18.006Z,3.73
2018-04-06T08:39:46.416Z,3.40
2018-04-06T08:42:14.862Z,3.13
2018-04-06T08:44:43.269Z,3.87
2018-04-06T08:47:11.678Z,3.10
2018-04-06T08:49:40.133Z,4.17
2018-04-06T08:52:08.551Z,4.40
2018-04-06T08:54:37.018Z,3.80
2018-04-06T08:57:05.470Z,3.70
2018-04-06T08:59:33.913Z,3.80
2018-04-06T09:02:02.360Z,4.60
2018-04-06T09:04:30.812Z,3.60
2018-04-06T09:06:59.214Z,4.43
2018-04-06T09:09:27.634Z,3.97
2018-04-06T09:11:56.129Z,3.53
2018-04-06T09:14:24.541Z,3.70
2018-04-06T09:16:52.978Z,3.57
2018-04-06T09:19:21.466Z,3.93
2018-04-06T09:21:49.881Z,3.60
2018-04-06T09:24:18.304Z,3.40
2018-04-06T09:26:46.798Z,2.90
2018-04-06T09:29:15.206Z,3.17
2018-04-06T09:31:43.610Z,2.20
2018-04-06T09:34:12.065Z,2.40
2018-04-06T09:36:40.474Z,2.90
2018-04-06T09:39:08.893Z,1.97
2018-04-06T09:41:37.348Z,2.77
2018-04-06T09:44:05.946Z,2.43
2018-04-06T09:46:34.389Z,2.47
2018-04-06T09:49:02.842Z,2.60
2018-04-06T09:51:31.254Z,2.07
2018-04-06T09:53:59.658Z,2.60
2018-04-06T09:56:28.109Z,3.00
2018-04-06T09:58:56.521Z,2.60
2018-04-06T10:01:39.846Z,2.37
2018-04-06T10:04:08.258Z,2.20
2018-04-06T10:06:36.679Z,2.17
2018-04-06T10:09:05.949Z,2.27
2018-04-06T10:11:34.354Z,1.80
2018-04-06T10:14:02.762Z,2.10
2018-04-06T10:16:31.209Z,2.33
2018-04-06T10:18:59.617Z,2.20
2018-04-06T10:21:28.023Z,2.53
2018-04-06T10:23:56.466Z,1.93
2018-04-06T10:26:24.875Z,2.43
2018-04-06T10:28:53.289Z,2.07
2018-04-06T10:31:21.746Z,2.73
2018-04-06T10:33:50.151Z,2.07
2018-04-06T10:36:18.557Z,2.10
2018-04-06T10:38:47.017Z,2.43
2018-04-06T10:41:15.427Z,2.40
2018-04-06T10:43:43.863Z,1.87
2018-04-06T10:46:12.322Z,2.17
2018-04-06T10:48:40.752Z,1.93
2018-04-06T10:51:09.167Z,1.90
2018-04-06T10:53:37.622Z,1.80
2018-04-06T10:56:06.025Z,2.00
2018-04-06T10:58:34.501Z,1.90
2018-04-06T11:01:02.918Z,1.80
2018-04-06T11:03:31.318Z,2.23
2018-04-06T11:05:59.728Z,1.87
2018-04-06T11:08:28.185Z,2.20
2018-04-06T11:10:56.607Z,1.77
2018-04-06T11:13:25.009Z,1.63
2018-04-06T11:15:53.460Z,1.70
2018-04-06T11:18:21.861Z,1.63
2018-04-06T11:20:50.297Z,1.97
2018-04-06T11:23:18.747Z,1.60
2018-04-06T11:25:47.245Z,1.77
2018-04-06T11:28:15.710Z,1.63
2018-04-06T11:30:44.167Z,1.77
2018-04-06T11:33:12.578Z,1.60
2018-04-06T11:35:40.985Z,1.40
2018-04-06T11:38:09.449Z,1.90
2018-04-06T11:40:37.861Z,2.30
2018-04-06T11:43:06.270Z,2.20
2018-04-06T11:45:34.730Z,1.90
2018-04-06T11:48:03.135Z,2.00
2018-04-06T11:50:31.534Z,1.87
2018-04-06T11:52:59.983Z,2.10
2018-04-06T11:55:28.394Z,2.10
2018-04-06T11:57:56.798Z,2.10
2018-04-06T12:00:25.246Z,1.90
2018-04-06T12:02:53.666Z,1.70
2018-04-06T12:05:22.166Z,1.93
2018-04-06T12:07:50.682Z,2.20
2018-04-06T12:10:19.078Z,2.90
2018-04-06T12:12:47.503Z,2.20
2018-04-06T12:15:15.950Z,2.73
2018-04-06T12:17:44.365Z,2.90
2018-04-06T12:20:12.775Z,2.37
2018-04-06T12:22:41.222Z,2.53
2018-04-06T12:25:09.629Z,2.40
2018-04-06T12:27:38.042Z,2.27
2018-04-06T12:30:06.485Z,2.20
2018-04-06T12:32:34.897Z,2.37
2018-04-06T12:35:03.322Z,2.60
2018-04-06T12:37:31.842Z,2.20
2018-04-06T12:40:00.474Z,2.20
2018-04-06T12:42:28.914Z,2.40
2018-04-06T12:44:57.362Z,2.70
2018-04-06T12:47:25.766Z,2.17
2018-04-06T12:49:54.173Z,2.17
2018-04-06T12:52:22.634Z,2.30
2018-04-06T12:54:51.044Z,2.27
2018-04-06T12:57:19.450Z,2.40
2018-04-06T12:59:47.902Z,2.63
2018-04-06T13:02:16.315Z,2.20
2018-04-06T13:04:44.732Z,2.43
2018-04-06T13:07:13.174Z,2.20
2018-04-06T13:09:41.595Z,2.70
2018-04-06T13:12:10.002Z,2.43
2018-04-06T13:14:38.474Z,2.47
2018-04-06T13:17:06.882Z,2.90
2018-04-06T13:19:35.291Z,2.53
2018-04-06T13:22:03.763Z,2.40
2018-04-06T13:24:32.173Z,2.67
2018-04-06T13:27:00.585Z,2.47
2018-04-06T13:29:29.033Z,2.60
2018-04-06T13:31:57.442Z,2.90
2018-04-06T13:34:25.857Z,2.60
2018-04-06T13:36:54.319Z,2.83
2018-04-06T13:39:22.722Z,2.97
2018-04-06T13:41:51.130Z,2.80
2018-04-06T13:44:19.597Z,2.70
2018-04-06T13:46:48.011Z,2.67
2018-04-06T13:49:16.441Z,2.50
2018-04-06T13:51:44.910Z,2.80
2018-04-06T13:54:13.317Z,3.00
2018-04-06T13:56:41.731Z,2.63
2018-04-06T13:59:10.194Z,3.10
2018-04-06T14:01:38.597Z,2.97
2018-04-06T14:04:07.002Z,2.43
2018-04-06T14:06:35.723Z,2.50
2018-04-06T14:09:04.119Z,2.73
2018-04-06T14:11:32.527Z,2.40
2018-04-06T14:14:00.974Z,3.20
2018-04-06T14:16:29.382Z,2.63
2018-04-06T14:18:57.806Z,2.73
2018-04-06T14:21:26.257Z,2.63
2018-04-06T14:23:54.670Z,2.90
2018-04-06T14:26:23.081Z,2.80
2018-04-06T14:28:51.530Z,3.07
2018-04-06T14:31:20.024Z,2.77
2018-04-06T14:33:48.429Z,2.90
2018-04-06T14:36:16.881Z,2.70
2018-04-06T14:38:45.294Z,3.00
2018-04-06T14:41:13.711Z,2.77
2018-04-06T14:43:42.174Z,2.90
2018-04-06T14:46:10.649Z,3.13
2018-04-06T14:48:39.362Z,2.60
2018-04-06T14:51:07.819Z,2.77
2018-04-06T14:53:36.225Z,3.13
2018-04-06T14:56:04.645Z,3.23
2018-04-06T14:58:33.093Z,2.67
2018-04-06T15:01:01.510Z,2.80
2018-04-06T15:03:29.928Z,2.70
2018-04-06T15:05:58.382Z,3.10
2018-04-06T15:08:26.782Z,2.30
2018-04-06T15:10:55.193Z,2.63
2018-04-06T15:13:23.642Z,2.93
2018-04-06T15:15:52.054Z,2.90
2018-04-06T15:18:20.466Z,2.87
2018-04-06T15:20:48.930Z,3.07
2018-04-06T15:23:17.349Z,2.93
2018-04-06T15:25:45.769Z,2.80
2018-04-06T15:28:14.245Z,2.83
2018-04-06T15:30:42.650Z,3.17
2018-04-06T15:33:11.053Z,3.03
2018-04-06T15:35:39.513Z,2.97
2018-04-06T15:38:07.926Z,2.93
2018-04-06T15:40:36.334Z,2.97
2018-04-06T15:43:05.027Z,3.43
2018-04-06T15:45:33.454Z,3.10
2018-04-06T15:48:01.858Z,3.70
2018-04-06T15:50:30.317Z,3.57
2018-04-06T15:52:58.721Z,3.20
2018-04-06T15:55:27.131Z,2.77
2018-04-06T15:57:55.586Z,3.30
2018-04-06T16:00:24.010Z,3.20
2018-04-06T16:02:52.434Z,2.90
2018-04-06T16:05:20.940Z,3.07
2018-04-06T16:07:49.386Z,2.87
2018-04-06T16:10:17.838Z,3.00
2018-04-06T16:12:46.302Z,3.00
2018-04-06T16:15:14.730Z,3.30
2018-04-06T16:17:43.138Z,3.20
2018-04-06T16:20:11.647Z,3.40
2018-04-06T16:22:40.058Z,3.57
2018-04-06T16:25:08.466Z,3.27
2018-04-06T16:27:36.909Z,3.17
2018-04-06T16:30:05.309Z,3.07
2018-04-06T16:32:33.732Z,3.30
2018-04-06T16:35:02.185Z,3.60
2018-04-06T16:37:30.594Z,3.27
2018-04-06T16:39:59.025Z,3.47
2018-04-06T16:42:27.501Z,3.67
2018-04-06T16:44:55.910Z,3.17
2018-04-06T16:47:24.318Z,3.47
2018-04-06T16:49:52.786Z,3.00
2018-04-06T16:52:21.305Z,3.33
2018-04-06T16:54:49.742Z,3.97
2018-04-06T16:57:18.210Z,3.40
2018-04-06T16:59:46.630Z,3.73
2018-04-06T17:02:15.039Z,3.30
2018-04-06T17:04:43.477Z,3.37
2018-04-06T17:07:11.886Z,2.80
2018-04-06T17:09:40.304Z,3.53
2018-04-06T17:12:08.753Z,3.53
2018-04-06T17:14:37.162Z,3.53
2018-04-06T17:17:05.565Z,3.40
2018-04-06T17:19:34.025Z,3.00
2018-04-06T17:22:02.430Z,2.70
2018-04-06T17:24:30.874Z,3.10
2018-04-06T17:26:59.329Z,3.10
2018-04-06T17:29:27.738Z,3.07
2018-04-06T17:31:56.142Z,2.80
2018-04-06T17:34:24.594Z,3.20
2018-04-06T17:36:53.018Z,3.00
2018-04-06T17:39:21.417Z,3.50
2018-04-06T17:41:49.874Z,2.90
2018-04-06T17:44:18.278Z,2.87
2018-04-06T17:46:46.683Z,3.03
2018-04-06T17:49:15.134Z,3.20
2018-04-06T17:51:43.537Z,2.77
2018-04-06T17:54:12.078Z,3.33
2018-04-06T17:56:40.522Z,2.93
2018-04-06T17:59:08.925Z,3.20
2018-04-06T18:01:37.338Z,2.67
2018-04-06T18:04:05.811Z,3.10
2018-04-06T18:06:34.292Z,3.00
2018-04-06T18:09:02.698Z,2.80
2018-04-06T18:11:31.141Z,3.20
2018-04-06T18:14:00.474Z,2.70
2018-04-06T18:16:28.889Z,2.50
2018-04-06T18:18:57.373Z,2.57
2018-04-06T18:21:25.785Z,2.60
2018-04-06T18:23:54.193Z,2.67
2018-04-06T18:26:22.668Z,2.37
2018-04-06T18:28:51.102Z,2.70
2018-04-06T18:31:19.530Z,3.03
2018-04-06T18:33:47.978Z,2.63
2018-04-06T18:36:16.391Z,2.70
2018-04-06T18:38:44.834Z,2.70
2018-04-06T18:41:13.278Z,2.80
2018-04-06T18:43:41.723Z,2.60
2018-04-06T18:46:10.127Z,2.73
2018-04-06T18:48:38.594Z,2.70
2018-04-06T18:51:06.995Z,2.60
2018-04-06T18:53:35.398Z,2.60
2018-04-06T18:56:03.880Z,2.60
2018-04-06T18:58:32.307Z,3.23
2018-04-06T19:01:00.747Z,3.63
2018-04-06T19:03:29.197Z,3.63
2018-04-06T19:05:57.598Z,3.43
2018-04-06T19:08:26.022Z,2.73
2018-04-06T19:10:54.481Z,2.73
2018-04-06T19:13:22.886Z,3.20
2018-04-06T19:15:51.290Z,2.93
2018-04-06T19:18:19.758Z,2.87
2018-04-06T19:20:48.153Z,2.97
2018-04-06T19:23:16.557Z,3.20
2018-04-06T19:25:45.022Z,2.73
2018-04-06T19:28:13.418Z,2.80
2018-04-06T19:30:41.821Z,2.97
2018-04-06T19:33:10.261Z,2.83
2018-04-06T19:35:38.664Z,2.80
2018-04-06T19:38:07.094Z,2.97
2018-04-06T19:40:35.544Z,2.70
2018-04-06T19:43:03.941Z,3.40
2018-04-06T19:45:32.346Z,4.07
2018-04-06T19:48:00.789Z,3.83
2018-04-06T19:50:29.193Z,3.77
2018-04-06T19:52:57.597Z,3.87
2018-04-06T19:55:26.033Z,3.77
2018-04-06T19:57:54.437Z,2.90
2018-04-06T20:00:22.854Z,2.90
2018-04-06T20:02:51.298Z,3.37
2018-04-06T20:05:19.693Z,4.03
2018-04-06T20:07:48.099Z,3.70
2018-04-06T20:10:16.545Z,3.20
2018-04-06T20:12:44.964Z,3.30
2018-04-06T20:15:13.393Z,3.57
2018-04-06T20:17:41.850Z,4.00
2018-04-06T20:20:10.255Z,3.70
2018-04-06T20:22:38.674Z,4.00
2018-04-06T20:25:07.149Z,4.00
2018-04-06T20:27:35.571Z,3.73
2018-04-06T20:30:04.001Z,3.77
2018-04-06T20:32:32.457Z,3.27
2018-04-06T20:35:00.878Z,3.57
2018-04-06T20:37:29.301Z,3.90
2018-04-06T20:39:57.778Z,3.93
2018-04-06T20:42:26.186Z,4.30
2018-04-06T20:44:54.586Z,3.57
2018-04-06T20:47:23.134Z,3.73
2018-04-06T20:49:51.533Z,3.90
2018-04-06T20:52:19.940Z,3.77
2018-04-06T20:54:48.386Z,4.00
2018-04-06T20:57:16.789Z,3.97
2018-04-06T20:59:45.189Z,3.97
2018-04-06T21:02:13.637Z,4.03
2018-04-06T21:04:42.041Z,3.80
2018-04-06T21:07:10.434Z,4.60
2018-04-06T21:09:38.882Z,4.50
2018-04-06T21:12:07.298Z,4.43
2018-04-06T21:14:35.702Z,4.40
2018-04-06T21:17:04.154Z,4.37
2018-04-06T21:19:32.556Z,3.97
2018-04-06T21:22:00.973Z,3.90
2018-04-06T21:24:29.418Z,4.77
2018-04-06T21:26:57.834Z,5.10
2018-04-06T21:29:26.238Z,4.00
2018-04-06T21:31:54.693Z,4.03
2018-04-06T21:34:23.101Z,4.00
2018-04-06T21:36:51.503Z,4.33
2018-04-06T21:39:19.950Z,3.90
2018-04-06T21:41:48.354Z,4.07
2018-04-06T21:44:16.757Z,4.37
2018-04-06T21:46:45.204Z,3.90
2018-04-06T21:49:13.602Z,4.27
2018-04-06T21:51:42.007Z,3.90
2018-04-06T21:54:10.454Z,3.90
2018-04-06T21:56:38.873Z,4.20
2018-04-06T21:59:07.294Z,4.13
2018-04-06T22:01:35.768Z,4.07
2018-04-06T22:04:04.188Z,4.03
2018-04-06T22:06:32.589Z,3.90
2018-04-06T22:09:01.021Z,4.17
2018-04-06T22:11:29.414Z,3.57
2018-04-06T22:13:57.838Z,4.30
2018-04-06T22:16:26.297Z,4.17
2018-04-06T22:18:54.697Z,4.07
2018-04-06T22:21:23.102Z,4.20
2018-04-06T22:23:51.561Z,4.23
2018-04-06T22:26:19.965Z,4.07
2018-04-06T22:28:48.366Z,3.80
2018-04-06T22:31:16.829Z,3.97
2018-04-06T22:33:45.230Z,4.17
2018-04-06T22:36:13.632Z,3.93
2018-04-06T22:38:42.098Z,4.53
2018-04-06T22:41:10.498Z,4.30
2018-04-06T22:43:38.921Z,4.50
2018-04-06T22:46:07.365Z,4.00
2018-04-06T22:48:35.770Z,4.00
2018-04-06T22:51:04.181Z,4.40
2018-04-06T22:53:32.618Z,4.30
2018-04-06T22:56:01.018Z,4.10
2018-04-06T22:58:29.417Z,4.50
2018-04-06T23:00:57.875Z,4.40
2018-04-06T23:03:26.278Z,4.20
2018-04-06T23:05:54.677Z,4.27
2018-04-06T23:08:23.124Z,4.17
2018-04-06T23:10:51.525Z,4.30
2018-04-06T23:13:19.923Z,4.43
2018-04-06T23:15:48.357Z,4.23
2018-04-06T23:18:16.757Z,4.20
2018-04-06T23:20:45.159Z,3.80
2018-04-06T23:23:13.598Z,4.00
2018-04-06T23:25:42.005Z,3.70
2018-04-06T23:28:10.410Z,4.10
2018-04-06T23:30:38.854Z,4.03
2018-04-06T23:33:07.249Z,4.17
2018-04-06T23:35:35.753Z,4.27
2018-04-06T23:38:04.196Z,3.67
2018-04-06T23:40:32.605Z,4.30
2018-04-06T23:43:01.006Z,3.90
2018-04-06T23:45:29.461Z,4.07
2018-04-06T23:47:57.874Z,4.13
2018-04-06T23:50:26.269Z,3.70
2018-04-06T23:52:54.709Z,3.77
2018-04-06T23:55:23.187Z,3.90
2018-04-06T23:57:51.589Z,3.70
